createdAt,value
2017-03-31T00:00:11.800Z,929.78
2017-03-31T00:00:26.011Z,929.75
2017-03-31T00:00:40.198Z,929.72
2017-03-31T00:00:54.384Z,929.79
2017-03-31T00:01:08.551Z,929.9
2017-03-31T00:01:22.689Z,929.77
2017-03-31T00:01:36.881Z,929.8
2017-03-31T00:01:51.103Z,929.84
2017-03-31T00:02:05.278Z,929.81
2017-03-31T00:02:19.441Z,929.8
2017-03-31T00:02:33.590Z,929.84
2017-03-31T00:02:47.783Z,929.78
2017-03-31T00:03:01.943Z,929.8
2017-03-31T00:03:16.042Z,929.8
2017-03-31T00:03:30.226Z,929.84
2017-03-31T00:03:44.375Z,929.84
2017-03-31T00:03:58.495Z,929.82
2017-03-31T00:04:12.617Z,929.82
2017-03-31T00:04:26.779Z,929.83
2017-03-31T00:04:40.890Z,929.84
2017-03-31T00:04:55.065Z,929.9
2017-03-31T00:05:09.178Z,929.84
2017-03-31T00:05:23.300Z,929.87
2017-03-31T00:05:37.395Z,929.87
2017-03-31T00:05:51.490Z,929.85
2017-03-31T00:06:05.635Z,929.87
2017-03-31T00:06:19.834Z,929.82
2017-03-31T00:06:34.014Z,929.84
2017-03-31T00:06:48.143Z,929.88
2017-03-31T00:07:02.285Z,929.92
2017-03-31T00:07:16.820Z,929.83
2017-03-31T00:07:30.959Z,929.88
2017-03-31T00:07:45.082Z,929.87
2017-03-31T00:07:59.230Z,929.87
2017-03-31T00:08:13.332Z,929.89
2017-03-31T00:08:27.490Z,929.9
2017-03-31T00:08:41.637Z,929.96
2017-03-31T00:08:55.798Z,929.88
2017-03-31T00:09:09.874Z,929.87
2017-03-31T00:09:23.975Z,929.88
2017-03-31T00:09:38.076Z,929.89
2017-03-31T00:09:52.278Z,929.9
2017-03-31T00:10:06.375Z,929.88
2017-03-31T00:10:20.540Z,929.91
2017-03-31T00:10:34.657Z,929.93
2017-03-31T00:10:48.791Z,929.94
2017-03-31T00:11:02.974Z,929.89
2017-03-31T00:11:17.161Z,929.96
2017-03-31T00:11:31.358Z,929.95
2017-03-31T00:11:45.499Z,929.94
2017-03-31T00:11:59.661Z,929.93
2017-03-31T00:12:13.739Z,929.91
2017-03-31T00:12:27.892Z,929.91
2017-03-31T00:12:42.090Z,929.98
2017-03-31T00:12:56.180Z,929.94
2017-03-31T00:13:10.353Z,929.93
2017-03-31T00:13:24.483Z,929.93
2017-03-31T00:13:38.610Z,930.01
2017-03-31T00:13:52.794Z,930.01
2017-03-31T00:14:06.990Z,929.91
2017-03-31T00:14:21.116Z,929.93
2017-03-31T00:14:35.297Z,929.92
2017-03-31T00:14:49.426Z,929.96
2017-03-31T00:15:03.584Z,929.96
2017-03-31T00:15:17.736Z,929.98
2017-03-31T00:15:31.887Z,929.98
2017-03-31T00:15:45.958Z,929.98
2017-03-31T00:16:00.089Z,930.06
2017-03-31T00:16:14.204Z,929.98
2017-03-31T00:16:28.315Z,930.09
2017-03-31T00:16:42.439Z,929.99
2017-03-31T00:16:56.610Z,930.01
2017-03-31T00:17:10.820Z,929.96
2017-03-31T00:17:24.912Z,930.02
2017-03-31T00:17:39.056Z,930
2017-03-31T00:17:53.215Z,929.98
2017-03-31T00:18:07.342Z,929.98
2017-03-31T00:18:21.481Z,930.03
2017-03-31T00:18:35.577Z,929.95
2017-03-31T00:18:49.749Z,929.98
2017-03-31T00:19:03.866Z,929.97
2017-03-31T00:19:17.990Z,929.98
2017-03-31T00:19:32.130Z,929.98
2017-03-31T00:19:46.303Z,929.94
2017-03-31T00:20:00.497Z,929.97
2017-03-31T00:20:14.675Z,930.01
2017-03-31T00:20:28.798Z,929.97
2017-03-31T00:20:42.921Z,930
2017-03-31T00:20:57.046Z,930.03
2017-03-31T00:21:11.223Z,929.96
2017-03-31T00:21:25.415Z,929.99
2017-03-31T00:21:39.561Z,930
2017-03-31T00:21:53.692Z,929.95
2017-03-31T00:22:07.834Z,930.01
2017-03-31T00:22:22.281Z,929.92
2017-03-31T00:22:36.597Z,929.92
2017-03-31T00:22:50.784Z,929.96
2017-03-31T00:23:04.915Z,929.93
2017-03-31T00:23:19.357Z,929.95
2017-03-31T00:23:33.494Z,929.95
2017-03-31T00:23:47.922Z,929.89
2017-03-31T00:24:02.461Z,929.91
2017-03-31T00:24:16.650Z,929.97
2017-03-31T00:24:30.795Z,929.97
2017-03-31T00:24:45.183Z,929.96
2017-03-31T00:24:59.315Z,929.91
2017-03-31T00:25:13.497Z,929.92
2017-03-31T00:25:28.499Z,929.9
2017-03-31T00:25:42.660Z,929.9
2017-03-31T00:25:57.184Z,929.96
2017-03-31T00:26:11.342Z,930.02
2017-03-31T00:26:25.511Z,929.91
2017-03-31T00:26:39.670Z,929.89
2017-03-31T00:26:53.842Z,929.89
2017-03-31T00:27:08.004Z,929.93
2017-03-31T00:27:22.222Z,929.88
2017-03-31T00:27:36.381Z,929.96
2017-03-31T00:27:50.503Z,929.9
2017-03-31T00:28:04.699Z,929.9
2017-03-31T00:28:18.858Z,929.92
2017-03-31T00:28:33.029Z,929.93
2017-03-31T00:28:47.181Z,929.9
2017-03-31T00:29:01.354Z,929.91
2017-03-31T00:29:15.460Z,929.9
2017-03-31T00:29:29.646Z,929.92
2017-03-31T00:29:43.815Z,929.85
2017-03-31T00:29:57.981Z,929.88
2017-03-31T00:30:12.123Z,929.85
2017-03-31T00:30:26.222Z,929.88
2017-03-31T00:30:40.350Z,929.87
2017-03-31T00:30:54.424Z,929.9
2017-03-31T00:31:08.615Z,929.87
2017-03-31T00:31:22.781Z,929.9
2017-03-31T00:31:36.952Z,929.89
2017-03-31T00:31:51.090Z,929.85
2017-03-31T00:32:05.208Z,929.89
2017-03-31T00:32:19.324Z,929.91
2017-03-31T00:32:33.469Z,929.94
2017-03-31T00:32:47.644Z,929.93
2017-03-31T00:33:01.804Z,929.9
2017-03-31T00:33:15.980Z,929.96
2017-03-31T00:33:30.134Z,929.93
2017-03-31T00:33:44.271Z,929.92
2017-03-31T00:33:58.385Z,929.94
2017-03-31T00:34:12.529Z,929.94
2017-03-31T00:34:26.626Z,929.91
2017-03-31T00:34:40.756Z,929.88
2017-03-31T00:34:54.952Z,929.94
2017-03-31T00:35:09.123Z,929.95
2017-03-31T00:35:23.266Z,929.91
2017-03-31T00:35:37.469Z,929.93
2017-03-31T00:35:51.545Z,929.94
2017-03-31T00:36:05.656Z,929.89
2017-03-31T00:36:19.741Z,929.92
2017-03-31T00:36:33.891Z,929.92
2017-03-31T00:36:48.023Z,929.91
2017-03-31T00:37:02.166Z,929.92
2017-03-31T00:37:16.337Z,929.92
2017-03-31T00:37:30.737Z,929.92
2017-03-31T00:37:44.903Z,929.92
2017-03-31T00:37:59.090Z,929.89
2017-03-31T00:38:13.218Z,929.9
2017-03-31T00:38:27.377Z,929.92
2017-03-31T00:38:41.598Z,929.91
2017-03-31T00:38:55.747Z,929.94
2017-03-31T00:39:09.910Z,929.92
2017-03-31T00:39:24.056Z,929.91
2017-03-31T00:39:38.239Z,929.92
2017-03-31T00:39:52.335Z,929.91
2017-03-31T00:40:06.483Z,929.9
2017-03-31T00:40:20.625Z,929.89
2017-03-31T00:40:34.746Z,929.89
2017-03-31T00:40:48.880Z,929.89
2017-03-31T00:41:03.057Z,929.92
2017-03-31T00:41:17.156Z,929.93
2017-03-31T00:41:31.346Z,929.91
2017-03-31T00:41:45.440Z,929.9
2017-03-31T00:41:59.575Z,929.92
2017-03-31T00:42:13.747Z,929.92
2017-03-31T00:42:27.934Z,929.94
2017-03-31T00:42:42.058Z,929.93
2017-03-31T00:42:56.217Z,929.95
2017-03-31T00:43:10.328Z,929.93
2017-03-31T00:43:24.470Z,929.94
2017-03-31T00:43:38.612Z,929.93
2017-03-31T00:43:52.750Z,929.92
2017-03-31T00:44:06.985Z,929.87
2017-03-31T00:44:21.074Z,929.9
2017-03-31T00:44:35.188Z,929.91
2017-03-31T00:44:49.307Z,929.9
2017-03-31T00:45:03.447Z,929.91
2017-03-31T00:45:17.572Z,929.88
2017-03-31T00:45:31.742Z,929.92
2017-03-31T00:45:45.894Z,929.91
2017-03-31T00:46:00.060Z,929.94
2017-03-31T00:46:14.222Z,929.9
2017-03-31T00:46:28.385Z,929.89
2017-03-31T00:46:42.535Z,929.93
2017-03-31T00:46:56.668Z,929.89
2017-03-31T00:47:10.834Z,929.89
2017-03-31T00:47:24.895Z,929.9
2017-03-31T00:47:39.028Z,929.9
2017-03-31T00:47:53.159Z,929.92
2017-03-31T00:48:07.317Z,929.9
2017-03-31T00:48:21.492Z,929.9
2017-03-31T00:48:35.626Z,929.92
2017-03-31T00:48:49.821Z,929.96
2017-03-31T00:49:03.985Z,929.92
2017-03-31T00:49:18.198Z,929.92
2017-03-31T00:49:32.423Z,929.92
2017-03-31T00:49:46.596Z,929.93
2017-03-31T00:50:00.725Z,929.95
2017-03-31T00:50:14.920Z,929.91
2017-03-31T00:50:29.030Z,929.96
2017-03-31T00:50:43.225Z,929.94
2017-03-31T00:50:57.361Z,929.95
2017-03-31T00:51:11.540Z,929.98
2017-03-31T00:51:25.681Z,929.91
2017-03-31T00:51:39.789Z,929.94
2017-03-31T00:51:53.913Z,929.93
2017-03-31T00:52:08.089Z,929.95
2017-03-31T00:52:22.229Z,929.9
2017-03-31T00:52:36.397Z,929.91
2017-03-31T00:52:50.761Z,929.91
2017-03-31T00:53:04.908Z,929.9
2017-03-31T00:53:19.307Z,929.91
2017-03-31T00:53:33.492Z,929.92
2017-03-31T00:53:47.654Z,929.9
2017-03-31T00:54:01.830Z,929.94
2017-03-31T00:54:16.020Z,929.95
2017-03-31T00:54:30.197Z,929.95
2017-03-31T00:54:44.327Z,929.95
2017-03-31T00:54:58.578Z,929.94
2017-03-31T00:55:12.734Z,929.93
2017-03-31T00:55:26.914Z,929.98
2017-03-31T00:55:40.994Z,929.93
2017-03-31T00:55:55.206Z,929.95
2017-03-31T00:56:09.493Z,929.95
2017-03-31T00:56:23.643Z,930.01
2017-03-31T00:56:37.835Z,929.96
2017-03-31T00:56:51.950Z,929.97
2017-03-31T00:57:06.089Z,929.99
2017-03-31T00:57:20.200Z,929.97
2017-03-31T00:57:34.295Z,930
2017-03-31T00:57:48.444Z,930.02
2017-03-31T00:58:02.629Z,929.99
2017-03-31T00:58:16.806Z,929.99
2017-03-31T00:58:30.904Z,930.03
2017-03-31T00:58:45.020Z,930
2017-03-31T00:58:59.159Z,930.04
2017-03-31T00:59:13.296Z,930.02
2017-03-31T00:59:27.461Z,930
2017-03-31T00:59:41.642Z,930.06
2017-03-31T00:59:55.804Z,930.05
2017-03-31T01:00:09.983Z,930.02
2017-03-31T01:00:24.078Z,930.05
2017-03-31T01:00:38.239Z,930.05
2017-03-31T01:00:52.397Z,930.07
2017-03-31T01:01:06.516Z,930.01
2017-03-31T01:01:20.703Z,930.04
2017-03-31T01:01:34.831Z,930.07
2017-03-31T01:01:48.990Z,930.05
2017-03-31T01:02:03.145Z,930.03
2017-03-31T01:02:17.268Z,930.06
2017-03-31T01:02:31.445Z,930.05
2017-03-31T01:02:45.618Z,930.06
2017-03-31T01:02:59.727Z,930.08
2017-03-31T01:03:13.875Z,930.09
2017-03-31T01:03:28.010Z,930.04
2017-03-31T01:03:42.209Z,930.06
2017-03-31T01:03:56.396Z,930.05
2017-03-31T01:04:10.490Z,930.09
2017-03-31T01:04:24.612Z,930.08
2017-03-31T01:04:38.783Z,930.08
2017-03-31T01:04:52.918Z,930.09
2017-03-31T01:05:07.304Z,930.05
2017-03-31T01:05:21.439Z,930.05
2017-03-31T01:05:35.539Z,930.09
2017-03-31T01:05:49.660Z,930.06
2017-03-31T01:06:03.813Z,930.04
2017-03-31T01:06:17.897Z,930.08
2017-03-31T01:06:32.072Z,930.08
2017-03-31T01:06:46.259Z,930.03
2017-03-31T01:07:00.398Z,930.06
2017-03-31T01:07:14.628Z,930.08
2017-03-31T01:07:28.804Z,930.05
2017-03-31T01:07:42.951Z,930.06
2017-03-31T01:07:57.449Z,930.11
2017-03-31T01:08:11.575Z,930.07
2017-03-31T01:08:25.807Z,930.03
2017-03-31T01:08:40.004Z,930.07
2017-03-31T01:08:54.101Z,930.05
2017-03-31T01:09:08.258Z,930.05
2017-03-31T01:09:22.422Z,930.05
2017-03-31T01:09:36.778Z,930.05
2017-03-31T01:09:50.960Z,930.08
2017-03-31T01:10:05.056Z,930.06
2017-03-31T01:10:19.167Z,930.05
2017-03-31T01:10:33.326Z,930.05
2017-03-31T01:10:47.448Z,930.05
2017-03-31T01:11:01.557Z,930.06
2017-03-31T01:11:15.710Z,930.06
2017-03-31T01:11:29.838Z,930.06
2017-03-31T01:11:44.032Z,930.06
2017-03-31T01:11:58.182Z,930.06
2017-03-31T01:12:12.305Z,930.07
2017-03-31T01:12:26.470Z,930.04
2017-03-31T01:12:40.584Z,930.05
2017-03-31T01:12:54.819Z,930.03
2017-03-31T01:13:08.956Z,930.07
2017-03-31T01:13:23.126Z,930.08
2017-03-31T01:13:37.310Z,930.07
2017-03-31T01:13:51.488Z,930.07
2017-03-31T01:14:05.635Z,930.08
2017-03-31T01:14:19.791Z,930.05
2017-03-31T01:14:33.976Z,930.07
2017-03-31T01:14:48.176Z,930.06
2017-03-31T01:15:02.315Z,930.06
2017-03-31T01:15:16.475Z,930.05
2017-03-31T01:15:30.632Z,930.05
2017-03-31T01:15:44.695Z,930.07
2017-03-31T01:15:58.831Z,930.08
2017-03-31T01:16:13.050Z,930.05
2017-03-31T01:16:27.203Z,930.03
2017-03-31T01:16:41.332Z,930.04
2017-03-31T01:16:55.476Z,930.03
2017-03-31T01:17:09.642Z,930.04
2017-03-31T01:17:23.793Z,930.07
2017-03-31T01:17:38.040Z,930.05
2017-03-31T01:17:52.207Z,930.04
2017-03-31T01:18:06.595Z,930.01
2017-03-31T01:18:20.727Z,930.03
2017-03-31T01:18:34.889Z,930.04
2017-03-31T01:18:49.066Z,930.05
2017-03-31T01:19:03.163Z,930.06
2017-03-31T01:19:17.410Z,930.04
2017-03-31T01:19:31.610Z,930.04
2017-03-31T01:19:45.777Z,930.02
2017-03-31T01:19:59.918Z,930.05
2017-03-31T01:20:14.362Z,930
2017-03-31T01:20:41.270Z,930
2017-03-31T01:20:57.934Z,929.99
2017-03-31T01:21:13.789Z,930.03
2017-03-31T01:21:59.177Z,929.96
2017-03-31T01:22:13.355Z,929.97
2017-03-31T01:22:27.476Z,929.94
2017-03-31T01:22:41.626Z,929.98
2017-03-31T01:22:55.945Z,929.96
2017-03-31T01:23:10.086Z,929.94
2017-03-31T01:23:24.209Z,929.89
2017-03-31T01:23:38.401Z,929.93
2017-03-31T01:23:52.608Z,929.93
2017-03-31T01:24:06.800Z,929.98
2017-03-31T01:24:20.942Z,929.98
2017-03-31T01:25:09.570Z,929.93
2017-03-31T01:25:53.888Z,929.91
2017-03-31T01:26:10.297Z,929.97
2017-03-31T01:26:44.445Z,929.95
2017-03-31T01:26:59.829Z,929.96
2017-03-31T01:27:14.002Z,929.93
2017-03-31T01:27:30.815Z,929.98
2017-03-31T01:27:56.473Z,929.93
2017-03-31T01:28:11.393Z,929.99
2017-03-31T01:28:25.933Z,929.96
2017-03-31T01:28:40.104Z,930.03
2017-03-31T01:28:54.667Z,929.96
2017-03-31T01:29:08.823Z,929.99
2017-03-31T01:29:25.019Z,930
2017-03-31T01:30:02.737Z,929.96
2017-03-31T01:30:16.964Z,929.98
2017-03-31T01:30:31.084Z,929.98
2017-03-31T01:30:45.252Z,929.97
2017-03-31T01:31:09.219Z,929.98
2017-03-31T01:31:24.053Z,929.98
2017-03-31T01:31:41.312Z,929.97
2017-03-31T01:31:55.427Z,929.97
2017-03-31T01:32:09.574Z,929.99
2017-03-31T01:32:23.744Z,930.03
2017-03-31T01:32:37.969Z,929.98
2017-03-31T01:32:52.125Z,929.89
2017-03-31T01:33:06.292Z,929.99
2017-03-31T01:33:20.395Z,929.98
2017-03-31T01:33:34.587Z,929.93
2017-03-31T01:33:48.899Z,929.98
2017-03-31T01:34:05.115Z,929.87
2017-03-31T01:34:23.577Z,929.93
2017-03-31T01:34:39.141Z,929.91
2017-03-31T01:34:53.264Z,929.94
2017-03-31T01:35:07.403Z,929.98
2017-03-31T01:35:21.525Z,929.96
2017-03-31T01:35:35.671Z,929.96
2017-03-31T01:35:49.878Z,929.99
2017-03-31T01:36:04.078Z,929.97
2017-03-31T01:36:18.235Z,929.96
2017-03-31T01:36:32.388Z,929.95
2017-03-31T01:36:46.471Z,929.98
2017-03-31T01:37:00.638Z,930
2017-03-31T01:37:14.768Z,929.95
2017-03-31T01:37:28.939Z,929.96
2017-03-31T01:37:43.167Z,929.97
2017-03-31T01:37:57.300Z,929.93
2017-03-31T01:38:11.802Z,929.91
2017-03-31T01:38:25.992Z,929.91
2017-03-31T01:38:40.140Z,929.95
2017-03-31T01:38:54.241Z,929.94
2017-03-31T01:39:08.481Z,929.95
2017-03-31T01:39:23.384Z,929.94
2017-03-31T01:39:37.505Z,929.97
2017-03-31T01:39:51.747Z,929.92
2017-03-31T01:40:05.839Z,929.93
2017-03-31T01:40:20.014Z,929.91
2017-03-31T01:40:34.207Z,929.92
2017-03-31T01:40:48.611Z,929.95
2017-03-31T01:41:02.762Z,929.89
2017-03-31T01:41:17.018Z,929.91
2017-03-31T01:41:31.150Z,929.93
2017-03-31T01:41:45.565Z,929.92
2017-03-31T01:41:59.822Z,929.95
2017-03-31T01:42:14.008Z,929.9
2017-03-31T01:42:28.148Z,929.91
2017-03-31T01:42:42.388Z,929.9
2017-03-31T01:42:56.573Z,929.94
2017-03-31T01:43:10.741Z,929.92
2017-03-31T01:43:24.912Z,929.93
2017-03-31T01:43:39.016Z,929.91
2017-03-31T01:43:53.173Z,929.92
2017-03-31T01:44:07.329Z,929.9
2017-03-31T01:44:21.436Z,929.93
2017-03-31T01:44:35.643Z,929.92
2017-03-31T01:44:49.951Z,929.92
2017-03-31T01:45:04.131Z,929.98
2017-03-31T01:45:18.916Z,929.95
2017-03-31T01:45:33.397Z,929.91
2017-03-31T01:45:47.747Z,929.95
2017-03-31T01:46:02.020Z,929.9
2017-03-31T01:46:16.193Z,929.9
2017-03-31T01:46:30.408Z,929.93
2017-03-31T01:46:45.799Z,929.97
2017-03-31T01:47:00.092Z,929.91
2017-03-31T01:47:14.262Z,929.89
2017-03-31T01:47:28.421Z,929.89
2017-03-31T01:47:42.581Z,929.94
2017-03-31T01:47:56.749Z,929.95
2017-03-31T01:48:10.923Z,929.94
2017-03-31T01:48:25.090Z,930
2017-03-31T01:48:39.296Z,929.9
2017-03-31T01:48:53.450Z,929.91
2017-03-31T01:49:07.649Z,929.91
2017-03-31T01:49:21.819Z,929.99
2017-03-31T01:49:37.214Z,929.91
2017-03-31T01:49:51.445Z,929.91
2017-03-31T01:50:05.624Z,929.82
2017-03-31T01:50:19.789Z,929.89
2017-03-31T01:50:33.944Z,929.9
2017-03-31T01:50:48.159Z,929.84
2017-03-31T01:51:02.443Z,929.86
2017-03-31T01:51:16.715Z,929.93
2017-03-31T01:51:30.901Z,929.91
2017-03-31T01:51:45.063Z,929.91
2017-03-31T01:51:59.178Z,929.91
2017-03-31T01:52:13.321Z,929.88
2017-03-31T01:52:27.522Z,929.9
2017-03-31T01:52:41.658Z,929.9
2017-03-31T01:52:55.855Z,929.87
2017-03-31T01:53:10.020Z,929.91
2017-03-31T01:53:24.413Z,929.91
2017-03-31T01:53:38.579Z,929.87
2017-03-31T01:53:52.703Z,929.97
2017-03-31T01:54:06.889Z,929.95
2017-03-31T01:54:21.030Z,929.89
2017-03-31T01:54:35.154Z,929.86
2017-03-31T01:54:49.372Z,929.86
2017-03-31T01:55:03.482Z,929.89
2017-03-31T01:55:17.581Z,929.89
2017-03-31T01:55:31.716Z,929.87
2017-03-31T01:55:45.827Z,929.86
2017-03-31T01:55:59.966Z,929.91
2017-03-31T01:56:14.164Z,929.81
2017-03-31T01:56:28.321Z,929.83
2017-03-31T01:56:42.467Z,929.84
2017-03-31T01:56:56.660Z,929.82
2017-03-31T01:57:10.830Z,929.8
2017-03-31T01:57:25.087Z,929.81
2017-03-31T01:57:39.260Z,929.82
2017-03-31T01:57:53.377Z,929.85
2017-03-31T01:58:07.539Z,929.82
2017-03-31T01:58:21.714Z,929.83
2017-03-31T01:58:35.852Z,929.8
2017-03-31T01:58:50.046Z,929.83
2017-03-31T01:59:04.168Z,929.84
2017-03-31T01:59:18.359Z,929.79
2017-03-31T01:59:32.538Z,929.82
2017-03-31T01:59:46.662Z,929.78
2017-03-31T02:00:00.793Z,929.83
2017-03-31T02:00:15.020Z,929.84
2017-03-31T02:00:29.176Z,929.83
2017-03-31T02:00:43.338Z,929.84
2017-03-31T02:00:57.429Z,929.86
2017-03-31T02:01:11.549Z,929.88
2017-03-31T02:01:25.763Z,929.84
2017-03-31T02:01:39.983Z,929.82
2017-03-31T02:01:54.158Z,929.82
2017-03-31T02:02:08.334Z,929.83
2017-03-31T02:02:22.483Z,929.82
2017-03-31T02:02:36.605Z,929.82
2017-03-31T02:02:50.749Z,929.81
2017-03-31T02:03:04.874Z,929.82
2017-03-31T02:03:19.065Z,929.79
2017-03-31T02:03:33.218Z,929.82
2017-03-31T02:03:47.403Z,929.8
2017-03-31T02:04:01.535Z,929.79
2017-03-31T02:04:15.632Z,929.79
2017-03-31T02:04:29.774Z,929.82
2017-03-31T02:04:43.907Z,929.75
2017-03-31T02:04:58.019Z,929.79
2017-03-31T02:05:12.162Z,929.8
2017-03-31T02:05:26.351Z,929.82
2017-03-31T02:05:40.573Z,929.8
2017-03-31T02:05:54.742Z,929.81
2017-03-31T02:06:08.877Z,929.77
2017-03-31T02:06:23.036Z,929.82
2017-03-31T02:06:37.216Z,929.79
2017-03-31T02:06:51.469Z,929.79
2017-03-31T02:07:05.569Z,929.82
2017-03-31T02:07:19.718Z,929.8
2017-03-31T02:07:33.860Z,929.77
2017-03-31T02:07:47.997Z,929.83
2017-03-31T02:08:02.146Z,929.84
2017-03-31T02:08:16.550Z,929.77
2017-03-31T02:08:30.708Z,929.8
2017-03-31T02:08:44.846Z,929.76
2017-03-31T02:08:58.976Z,929.79
2017-03-31T02:09:13.199Z,929.85
2017-03-31T02:09:27.326Z,929.81
2017-03-31T02:09:41.466Z,929.79
2017-03-31T02:09:55.654Z,929.78
2017-03-31T02:10:09.815Z,929.78
2017-03-31T02:10:23.970Z,929.81
2017-03-31T02:10:38.355Z,929.79
2017-03-31T02:10:52.454Z,929.8
2017-03-31T02:11:06.578Z,929.78
2017-03-31T02:11:20.795Z,929.83
2017-03-31T02:11:35.022Z,929.82
2017-03-31T02:11:49.156Z,929.79
2017-03-31T02:12:03.278Z,929.78
2017-03-31T02:12:17.353Z,929.78
2017-03-31T02:12:31.507Z,929.77
2017-03-31T02:12:45.697Z,929.78
2017-03-31T02:12:59.862Z,929.75
2017-03-31T02:13:13.931Z,929.77
2017-03-31T02:13:28.074Z,929.8
2017-03-31T02:13:42.259Z,929.79
2017-03-31T02:13:56.378Z,929.81
2017-03-31T02:14:10.539Z,929.81
2017-03-31T02:14:24.759Z,929.79
2017-03-31T02:14:38.966Z,929.77
2017-03-31T02:14:53.162Z,929.81
2017-03-31T02:15:07.314Z,929.8
2017-03-31T02:15:21.917Z,929.79
2017-03-31T02:15:36.119Z,929.84
2017-03-31T02:15:50.224Z,929.87
2017-03-31T02:16:04.392Z,929.84
2017-03-31T02:16:18.533Z,929.82
2017-03-31T02:16:32.711Z,929.79
2017-03-31T02:16:46.888Z,929.79
2017-03-31T02:17:01.077Z,929.78
2017-03-31T02:17:15.275Z,929.78
2017-03-31T02:17:29.493Z,929.78
2017-03-31T02:17:43.643Z,929.76
2017-03-31T02:17:57.807Z,929.79
2017-03-31T02:18:11.965Z,929.81
2017-03-31T02:18:26.105Z,929.76
2017-03-31T02:18:40.303Z,929.8
2017-03-31T02:18:54.423Z,929.75
2017-03-31T02:19:08.578Z,929.8
2017-03-31T02:19:22.688Z,929.77
2017-03-31T02:19:36.826Z,929.78
2017-03-31T02:19:51.065Z,929.81
2017-03-31T02:20:05.213Z,929.77
2017-03-31T02:20:19.344Z,929.8
2017-03-31T02:20:33.609Z,929.79
2017-03-31T02:20:47.771Z,929.82
2017-03-31T02:21:01.924Z,929.81
2017-03-31T02:21:16.071Z,929.79
2017-03-31T02:21:30.179Z,929.78
2017-03-31T02:21:44.410Z,929.79
2017-03-31T02:21:58.676Z,929.82
2017-03-31T02:22:12.848Z,929.83
2017-03-31T02:22:27.025Z,929.82
2017-03-31T02:22:41.161Z,929.84
2017-03-31T02:22:55.320Z,929.84
2017-03-31T02:23:09.495Z,929.83
2017-03-31T02:23:23.573Z,929.83
2017-03-31T02:23:37.898Z,929.84
2017-03-31T02:23:52.017Z,929.83
2017-03-31T02:24:06.134Z,929.89
2017-03-31T02:24:20.265Z,929.84
2017-03-31T02:24:34.390Z,929.79
2017-03-31T02:24:48.510Z,929.82
2017-03-31T02:25:02.648Z,929.84
2017-03-31T02:25:16.793Z,929.84
2017-03-31T02:25:30.940Z,929.86
2017-03-31T02:25:45.068Z,929.84
2017-03-31T02:25:59.254Z,929.84
2017-03-31T02:26:13.414Z,929.81
2017-03-31T02:26:27.588Z,929.86
2017-03-31T02:26:41.715Z,929.82
2017-03-31T02:26:55.868Z,929.87
2017-03-31T02:27:09.980Z,929.86
2017-03-31T02:27:24.119Z,929.82
2017-03-31T02:27:38.303Z,929.88
2017-03-31T02:27:52.453Z,929.87
2017-03-31T02:28:06.625Z,929.85
2017-03-31T02:28:20.767Z,929.78
2017-03-31T02:28:34.926Z,929.91
2017-03-31T02:28:49.044Z,929.87
2017-03-31T02:29:03.172Z,929.89
2017-03-31T02:29:17.329Z,929.88
2017-03-31T02:29:31.505Z,929.82
2017-03-31T02:29:45.680Z,929.85
2017-03-31T02:29:59.881Z,929.85
2017-03-31T02:30:14.056Z,929.85
2017-03-31T02:30:28.175Z,929.94
2017-03-31T02:30:42.313Z,929.9
2017-03-31T02:30:56.464Z,929.89
2017-03-31T02:31:10.658Z,929.9
2017-03-31T02:31:24.780Z,929.9
2017-03-31T02:31:38.938Z,929.87
2017-03-31T02:31:53.100Z,929.89
2017-03-31T02:32:07.246Z,929.89
2017-03-31T02:32:21.340Z,929.84
2017-03-31T02:32:35.471Z,929.85
2017-03-31T02:32:49.572Z,929.92
2017-03-31T02:33:03.763Z,929.85
2017-03-31T02:33:18.103Z,929.87
2017-03-31T02:33:32.260Z,929.9
2017-03-31T02:33:46.487Z,929.87
2017-03-31T02:34:00.667Z,929.89
2017-03-31T02:34:14.764Z,929.88
2017-03-31T02:34:28.930Z,929.91
2017-03-31T02:34:43.070Z,929.87
2017-03-31T02:34:57.221Z,929.87
2017-03-31T02:35:11.385Z,929.87
2017-03-31T02:35:25.584Z,929.86
2017-03-31T02:35:39.687Z,929.85
2017-03-31T02:35:53.843Z,929.87
2017-03-31T02:36:08.044Z,929.89
2017-03-31T02:36:22.240Z,929.83
2017-03-31T02:36:36.454Z,929.85
2017-03-31T02:36:50.568Z,929.86
2017-03-31T02:37:04.715Z,929.88
2017-03-31T02:37:18.897Z,929.86
2017-03-31T02:37:32.998Z,929.85
2017-03-31T02:37:47.153Z,929.84
2017-03-31T02:38:01.342Z,929.86
2017-03-31T02:38:15.487Z,929.88
2017-03-31T02:38:29.666Z,929.86
2017-03-31T02:38:44.040Z,929.87
2017-03-31T02:38:58.134Z,929.89
2017-03-31T02:39:12.287Z,929.91
2017-03-31T02:39:26.407Z,929.9
2017-03-31T02:39:40.567Z,929.91
2017-03-31T02:39:54.702Z,929.9
2017-03-31T02:40:08.863Z,929.87
2017-03-31T02:40:23.036Z,929.93
2017-03-31T02:40:37.151Z,929.87
2017-03-31T02:40:51.258Z,929.89
2017-03-31T02:41:05.474Z,929.87
2017-03-31T02:41:19.650Z,929.92
2017-03-31T02:41:33.795Z,929.84
2017-03-31T02:41:47.948Z,929.85
2017-03-31T02:42:02.176Z,929.86
2017-03-31T02:42:16.308Z,929.86
2017-03-31T02:42:30.433Z,929.88
2017-03-31T02:42:44.563Z,929.84
2017-03-31T02:42:58.764Z,929.9
2017-03-31T02:43:12.943Z,929.86
2017-03-31T02:43:27.134Z,929.86
2017-03-31T02:43:41.301Z,929.88
2017-03-31T02:43:55.449Z,929.87
2017-03-31T02:44:09.607Z,929.86
2017-03-31T02:44:23.746Z,929.86
2017-03-31T02:44:37.891Z,929.84
2017-03-31T02:44:52.028Z,929.88
2017-03-31T02:45:06.194Z,929.84
2017-03-31T02:45:20.356Z,929.85
2017-03-31T02:45:34.487Z,929.81
2017-03-31T02:45:48.659Z,929.8
2017-03-31T02:46:02.822Z,929.86
2017-03-31T02:46:16.962Z,929.8
2017-03-31T02:46:31.097Z,929.83
2017-03-31T02:46:45.258Z,929.84
2017-03-31T02:46:59.454Z,929.77
2017-03-31T02:47:13.608Z,929.81
2017-03-31T02:47:27.794Z,929.8
2017-03-31T02:47:41.896Z,929.86
2017-03-31T02:47:56.129Z,929.88
2017-03-31T02:48:10.253Z,929.83
2017-03-31T02:48:24.387Z,929.81
2017-03-31T02:48:38.559Z,929.87
2017-03-31T02:48:52.766Z,929.8
2017-03-31T02:49:06.922Z,929.84
2017-03-31T02:49:21.114Z,929.85
2017-03-31T02:49:35.221Z,929.81
2017-03-31T02:49:49.371Z,929.85
2017-03-31T02:50:03.561Z,929.83
2017-03-31T02:50:17.694Z,929.84
2017-03-31T02:50:31.843Z,929.84
2017-03-31T02:50:46.003Z,929.82
2017-03-31T02:51:00.135Z,929.86
2017-03-31T02:51:14.239Z,929.84
2017-03-31T02:51:28.342Z,929.82
2017-03-31T02:51:42.521Z,929.81
2017-03-31T02:51:56.618Z,929.82
2017-03-31T02:52:10.738Z,929.87
2017-03-31T02:52:24.868Z,929.84
2017-03-31T02:52:39.030Z,929.87
2017-03-31T02:52:53.224Z,929.8
2017-03-31T02:53:07.320Z,929.81
2017-03-31T02:53:21.421Z,929.82
2017-03-31T02:53:35.536Z,929.8
2017-03-31T02:53:49.895Z,929.8
2017-03-31T02:54:04.047Z,929.82
2017-03-31T02:54:18.191Z,929.81
2017-03-31T02:54:32.317Z,929.85
2017-03-31T02:54:46.467Z,929.82
2017-03-31T02:55:00.628Z,929.8
2017-03-31T02:55:14.795Z,929.83
2017-03-31T02:55:29.050Z,929.82
2017-03-31T02:55:43.256Z,929.77
2017-03-31T02:55:57.362Z,929.83
2017-03-31T02:56:11.526Z,929.84
2017-03-31T02:56:25.692Z,929.84
2017-03-31T02:56:39.801Z,929.81
2017-03-31T02:56:53.959Z,929.81
2017-03-31T02:57:08.103Z,929.83
2017-03-31T02:57:22.259Z,929.82
2017-03-31T02:57:36.372Z,929.85
2017-03-31T02:57:50.556Z,929.87
2017-03-31T02:58:04.739Z,929.86
2017-03-31T02:58:18.897Z,929.84
2017-03-31T02:58:33.104Z,929.86
2017-03-31T02:58:47.273Z,929.86
2017-03-31T02:59:01.460Z,929.88
2017-03-31T02:59:15.648Z,929.86
2017-03-31T02:59:29.805Z,929.87
2017-03-31T02:59:43.950Z,929.88
2017-03-31T02:59:58.090Z,929.9
2017-03-31T03:00:12.213Z,929.86
2017-03-31T03:00:26.366Z,929.92
2017-03-31T03:00:40.476Z,929.88
2017-03-31T03:00:54.600Z,929.86